Time;durP1;ratioP1;P1;durP2;ratioP2;P2;SDS_P1;SDS_P2;PMS_P1;PMS_P2;Temp;Humidity;BMP_temperature;BMP_pressure;BME280_temperature;BME280_humidity;BME280_pressure;Samples;Min_cycle;Max_cycle;Signal;HPM_P1;HPM_P2
2022/07/30 00:01:06;;;;;;;10.25;4.70;;;;;;;26.36;38.46;95229.81;5064628;28;20048;-86
2022/07/30 00:03:33;;;;;;;9.25;4.53;;;;;;;26.49;38.33;95252.88;5083111;28;20067;-86
2022/07/30 00:05:58;;;;;;;9.15;4.97;;;;;;;26.41;38.17;95230.25;5064362;28;20524;-86
2022/07/30 00:08:24;;;;;;;5.90;4.10;;;;;;;26.29;37.97;95200.63;5064176;28;20040;-86
2022/07/30 00:10:50;;;;;;;7.78;4.32;;;;;;;26.59;38.15;95246.75;5064225;28;20032;-86
2022/07/30 00:13:16;;;;;;;7.78;3.85;;;;;;;25.99;38.33;95165.34;5082685;28;20082;-86
2022/07/30 00:15:41;;;;;;;8.73;4.20;;;;;;;26.42;38.50;95228.31;5082658;28;20441;-86
2022/07/30 00:18:07;;;;;;;8.50;4.43;;;;;;;26.12;37.97;95196.53;5063748;28;20078;-86
2022/07/30 00:20:32;;;;;;;5.38;4.00;;;;;;;26.29;38.16;95195.19;5064810;28;20117;-86
2022/07/30 00:23:03;;;;;;;9.70;4.53;;;;;;;26.33;38.77;95220.47;5063869;28;20048;-86
2022/07/30 00:25:28;;;;;;;10.55;6.13;;;;;;;25.33;38.59;95055.53;5063991;28;20048;-86
2022/07/30 00:27:54;;;;;;;12.05;7.93;;;;;;;26.06;38.85;95162.69;5063962;28;20466;-86
2022/07/30 00:30:19;;;;;;;21.17;9.05;;;;;;;25.83;38.83;95123.25;5082471;28;20047;-86
2022/07/30 00:32:45;;;;;;;15.10;9.00;;;;;;;26.13;38.88;95187.22;5064832;28;20043;-86
2022/07/30 00:35:10;;;;;;;14.23;9.02;;;;;;;26.07;38.57;95164.28;5064064;28;20040;-86
2022/07/30 00:37:36;;;;;;;17.58;9.10;;;;;;;26.59;38.27;95233.16;5068405;28;20068;-86
2022/07/30 00:40:02;;;;;;;11.13;8.25;;;;;;;24.99;38.46;95002.41;5065909;28;20044;-86
2022/07/30 00:42:43;;;;;;;14.60;7.25;;;;;;;25.98;38.29;95154.84;5062250;28;20081;-86
2022/07/30 00:45:09;;;;;;;;;;;;;;;26.58;38.66;95247.13;5064441;28;20285;-86
2022/07/30 00:47:36;;;;;;;11.68;6.18;;;;;;;25.99;38.44;95168.06;5063933;28;20449;-86
2022/07/30 00:50:03;;;;;;;9.95;5.82;;;;;;;26.15;38.83;95214.03;5082425;28;20042;-86
2022/07/30 00:52:33;;;;;;;15.20;6.15;;;;;;;25.77;38.48;95125.50;5064241;28;20047;-86
2022/07/30 00:54:59;;;;;;;12.43;5.03;;;;;;;26.07;38.64;95185.22;5063966;28;20040;-86
2022/07/30 00:57:26;;;;;;;9.10;5.05;;;;;;;26.07;38.79;95183.28;5063193;28;20040;-86
2022/07/30 00:59:52;;;;;;;9.68;5.25;;;;;;;25.94;38.78;95168.38;5081272;28;20366;-86
2022/07/30 01:02:17;;;;;;;11.55;4.80;;;;;;;25.56;38.70;95095.34;5063137;28;20463;-86
2022/07/30 01:04:43;;;;;;;7.03;4.38;;;;;;;25.55;38.87;95112.81;5081594;28;20047;-86
2022/07/30 01:07:09;;;;;;;10.02;4.57;;;;;;;26.02;39.37;95199.91;5063277;28;20081;-86
2022/07/30 01:09:35;;;;;;;7.28;4.50;;;;;;;25.99;39.38;95197.94;5063520;28;20191;-86
2022/07/30 01:12:01;;;;;;;9.68;4.00;;;;;;;25.36;39.28;95108.31;5063163;28;20790;-86
2022/07/30 01:14:27;;;;;;;9.50;4.18;;;;;;;25.26;39.40;95089.94;5063240;28;20303;-86
2022/07/30 01:16:53;;;;;;;8.32;3.90;;;;;;;25.55;39.23;95145.41;5063881;28;20121;-86
2022/07/30 01:19:48;;;;;;;4.72;3.47;;;;;;;25.95;39.41;95201.75;5063521;28;20051;-86
2022/07/30 01:22:29;;;;;;;5.43;3.78;;;;;;;26.21;39.35;95236.22;5063359;28;20040;-86
2022/07/30 01:25:07;;;;;;;6.23;3.23;;;;;;;26.22;39.41;95235.88;5063224;28;20151;-86
2022/07/30 01:27:37;;;;;;;7.75;3.60;;;;;;;25.70;39.87;95179.75;5062885;28;20332;-86
2022/07/30 01:30:04;;;;;;;12.20;3.75;;;;;;;25.59;39.95;95173.41;5062438;28;20023;-86
2022/07/30 01:32:33;;;;;;;9.32;3.95;;;;;;;25.80;39.63;95189.16;5063865;28;20032;-86
2022/07/30 01:35:01;;;;;;;13.57;4.32;;;;;;;25.60;39.81;95188.53;5062628;28;20078;-86
2022/07/30 01:37:28;;;;;;;7.68;4.13;;;;;;;25.55;39.92;95158.97;5062390;28;20042;-86
2022/07/30 01:39:54;;;;;;;7.40;4.03;;;;;;;25.33;40.04;95120.69;5062451;28;20569;-86
2022/07/30 01:42:22;;;;;;;6.13;3.60;;;;;;;26.08;40.08;95241.94;5062344;28;20034;-86
2022/07/30 01:44:49;;;;;;;6.45;3.80;;;;;;;25.75;40.06;95188.34;5062005;28;20609;-86
2022/07/30 01:47:16;;;;;;;8.05;4.13;;;;;;;26.09;40.04;95234.56;5062573;28;20043;-86
2022/07/30 01:49:46;;;;;;;7.03;3.78;;;;;;;25.21;40.60;95139.13;5081064;28;20093;-86
2022/07/30 01:52:13;;;;;;;7.82;4.18;;;;;;;25.54;40.20;95188.06;5062116;28;20040;-86
2022/07/30 01:54:40;;;;;;;16.25;4.82;;;;;;;25.41;40.32;95147.91;5062774;28;20122;-86
2022/07/30 01:57:07;;;;;;;9.63;4.25;;;;;;;25.60;40.48;95177.69;5062227;28;20032;-86
2022/07/30 01:59:34;;;;;;;10.90;4.82;;;;;;;25.84;40.60;95226.09;5081537;28;20414;-86
2022/07/30 02:02:00;;;;;;;9.52;4.05;;;;;;;25.27;40.60;95137.66;5080684;28;20036;-86
2022/07/30 02:04:26;;;;;;;6.35;4.43;;;;;;;25.10;40.58;95100.25;5062404;28;20040;-86
2022/07/30 02:07:40;;;;;;;5.53;4.13;;;;;;;25.91;40.76;95239.00;5061210;28;20070;-86
2022/07/30 02:10:14;;;;;;;7.22;3.83;;;;;;;25.89;40.97;95233.13;5062386;28;20040;-86
2022/07/30 02:12:49;;;;;;;6.40;3.60;;;;;;;25.33;41.26;95166.81;5058427;28;20040;-86
2022/07/30 02:15:42;;;;;;;10.48;4.47;;;;;;;25.37;41.66;95183.16;5062096;28;20062;-86
2022/07/30 02:18:19;;;;;;;4.47;4.07;;;;;;;25.52;41.53;95192.28;5017127;28;20044;-86
2022/07/30 02:20:50;;;;;;;7.40;3.67;;;;;;;25.46;41.22;95205.41;5081071;28;20036;-86
2022/07/30 02:23:18;;;;;;;10.80;3.88;;;;;;;25.49;41.03;95187.56;5062101;28;20024;-86
2022/07/30 02:25:48;;;;;;;7.32;4.00;;;;;;;25.73;41.56;95220.53;5080897;28;20101;-86
2022/07/30 02:28:15;;;;;;;8.68;3.80;;;;;;;25.73;41.55;95225.97;5062419;28;20043;-86
2022/07/30 02:30:51;;;;;;;8.85;4.18;;;;;;;25.35;41.74;95175.38;5080438;28;20478;-86
2022/07/30 02:33:22;;;;;;;9.88;4.10;;;;;;;25.19;41.66;95169.34;5062392;28;20036;-86
2022/07/30 02:35:49;;;;;;;;;;;;;;;25.48;41.99;95224.81;5061685;28;20048;-85
2022/07/30 02:38:17;;;;;;;4.47;3.58;;;;;;;24.68;41.66;95095.72;5061838;28;19928;-86
2022/07/30 02:40:43;;;;;;;6.60;4.50;;;;;;;25.37;41.43;95192.09;5061756;28;20264;-86
2022/07/30 02:43:10;;;;;;;6.40;3.85;;;;;;;25.12;41.78;95165.75;5061889;28;20036;-86
2022/07/30 02:45:37;;;;;;;5.97;3.97;;;;;;;25.23;41.53;95169.41;5062228;28;20154;-86
2022/07/30 02:48:06;;;;;;;7.43;3.78;;;;;;;25.21;41.73;95171.69;5061663;28;20047;-86
2022/07/30 02:50:32;;;;;;;4.97;3.60;;;;;;;25.32;42.01;95192.44;5061671;28;20040;-86
2022/07/30 02:53:00;;;;;;;6.40;3.83;;;;;;;24.56;42.14;95077.72;5061317;28;20055;-86
2022/07/30 02:55:29;;;;;;;9.13;4.72;;;;;;;25.47;42.27;95217.06;5061534;28;20032;-86
2022/07/30 02:57:56;;;;;;;10.15;3.80;;;;;;;25.13;42.14;95162.69;5061183;28;20043;-86
2022/07/30 03:00:23;;;;;;;5.07;4.25;;;;;;;25.34;42.33;95211.81;5061725;28;20043;-86
2022/07/30 03:02:51;;;;;;;7.40;4.40;;;;;;;25.25;42.85;95215.97;5061164;28;20044;-86
2022/07/30 03:05:17;;;;;;;8.20;4.10;;;;;;;24.11;42.80;95037.91;5079532;28;20036;-86
2022/07/30 03:07:45;;;;;;;10.43;4.93;;;;;;;24.58;42.57;95107.97;5061204;28;20399;-86
2022/07/30 03:10:12;;;;;;;4.50;3.97;;;;;;;25.02;42.77;95177.25;5061318;28;20036;-86
2022/07/30 03:12:43;;;;;;;6.28;4.38;;;;;;;25.20;43.13;95208.91;5061825;28;20115;-86
2022/07/30 03:15:09;;;;;;;12.18;4.35;;;;;;;24.91;43.53;95164.31;5060326;28;20049;-86
2022/07/30 03:17:45;;;;;;;10.23;4.55;;;;;;;24.59;43.79;95139.38;5061366;28;20059;-85
2022/07/30 03:20:14;;;;;;;5.93;4.38;;;;;;;25.06;43.52;95199.78;5060644;28;20044;-86
2022/07/30 03:22:43;;;;;;;13.38;4.47;;;;;;;24.23;43.48;95066.78;5061949;28;20040;-86
2022/07/30 03:25:13;;;;;;;11.23;4.75;;;;;;;24.85;43.41;95175.81;5061346;28;20565;-86
2022/07/30 03:27:39;;;;;;;14.70;4.47;;;;;;;24.79;43.88;95174.56;5061324;28;20048;-86
2022/07/30 03:30:06;;;;;;;8.45;4.90;;;;;;;24.45;44.13;95131.00;5061076;28;20042;-86
2022/07/30 03:32:33;;;;;;;6.53;4.45;;;;;;;25.07;43.68;95204.84;5057168;28;20066;-85
2022/07/30 03:34:59;;;;;;;8.13;4.22;;;;;;;25.04;43.86;95211.00;5061303;28;20050;-85
2022/07/30 03:37:26;;;;;;;11.43;4.43;;;;;;;24.97;44.06;95210.88;5079083;28;20115;-85
2022/07/30 03:39:52;;;;;;;10.05;5.25;;;;;;;24.94;44.43;95211.63;5060601;28;20518;-85
2022/07/30 03:42:19;;;;;;;7.63;4.38;;;;;;;24.87;44.62;95197.94;5060863;28;20035;-85
2022/07/30 03:44:46;;;;;;;10.13;4.80;;;;;;;24.52;44.41;95150.09;5060946;28;20039;-85
2022/07/30 03:47:14;;;;;;;10.75;4.85;;;;;;;24.87;44.64;95206.06;5061272;28;20046;-85
2022/07/30 03:49:40;;;;;;;9.38;4.65;;;;;;;24.87;44.88;95228.53;5079939;28;20040;-85
2022/07/30 03:52:06;;;;;;;11.40;4.78;;;;;;;24.49;44.82;95172.50;5061485;28;20575;-86
2022/07/30 03:54:32;;;;;;;9.07;4.93;;;;;;;24.53;44.90;95167.94;5060308;28;20326;-85
2022/07/30 03:57:03;;;;;;;7.93;4.95;;;;;;;24.68;44.77;95192.56;5060608;28;20040;-85
2022/07/30 03:59:28;;;;;;;19.20;4.83;;;;;;;24.07;45.05;95099.38;5060972;28;20040;-86
2022/07/30 04:02:02;;;;;;;12.15;5.05;;;;;;;23.94;45.08;95098.00;5060995;28;20043;-86
2022/07/30 04:04:29;;;;;;;8.52;5.55;;;;;;;24.23;45.65;95154.25;5061579;28;20036;-86
2022/07/30 04:06:55;;;;;;;13.65;6.25;;;;;;;24.10;45.76;95133.09;5062130;28;20524;-86
2022/07/30 04:09:21;;;;;;;11.10;5.40;;;;;;;24.42;45.73;95177.81;5079376;28;20497;-86
2022/07/30 04:11:46;;;;;;;10.57;5.72;;;;;;;24.51;45.91;95210.09;5063467;28;20040;-86
2022/07/30 04:14:12;;;;;;;15.25;5.35;;;;;;;24.69;46.04;95240.25;5064106;28;20040;-86
2022/07/30 04:17:00;;;;;;;9.25;5.55;;;;;;;24.25;46.11;95183.72;5065090;28;20809;-86
2022/07/30 04:19:36;;;;;;;15.20;6.25;;;;;;;24.11;46.28;95164.44;5065052;28;20092;-86
2022/07/30 04:22:04;;;;;;;10.60;6.30;;;;;;;24.60;46.27;95241.25;5082737;28;20050;-86
2022/07/30 04:24:31;;;;;;;12.57;6.18;;;;;;;24.64;46.63;95235.91;5082070;28;20074;-86
2022/07/30 04:26:58;;;;;;;12.23;6.63;;;;;;;24.57;46.53;95227.63;5064158;28;20475;-86
2022/07/30 04:29:24;;;;;;;14.15;6.68;;;;;;;24.52;46.68;95223.28;5063882;28;20465;-86
2022/07/30 04:31:50;;;;;;;18.42;6.95;;;;;;;24.67;46.68;95237.88;5064074;28;20043;-86
2022/07/30 04:34:16;;;;;;;12.38;6.82;;;;;;;24.52;46.54;95207.03;5081897;28;20047;-85
2022/07/30 04:36:42;;;;;;;16.38;6.95;;;;;;;24.43;46.93;95211.91;5063516;28;20036;-86
2022/07/30 04:39:08;;;;;;;11.77;6.63;;;;;;;24.69;46.78;95232.09;5062957;28;20137;-86
2022/07/30 04:41:34;;;;;;;11.57;6.75;;;;;;;24.02;47.27;95158.50;5063916;28;20078;-86
2022/07/30 04:44:00;;;;;;;14.68;6.50;;;;;;;24.21;47.06;95172.03;5064593;28;20056;-86
2022/07/30 04:46:25;;;;;;;12.15;6.43;;;;;;;24.43;46.97;95203.78;5082016;28;20558;-86
2022/07/30 04:48:51;;;;;;;17.58;6.30;;;;;;;22.77;46.95;94941.50;5063803;28;20040;-86
2022/07/30 04:51:27;;;;;;;9.70;6.68;;;;;;;24.74;46.78;95250.78;5063455;28;20536;-86
2022/07/30 04:53:54;;;;;;;21.08;5.85;;;;;;;23.03;46.85;94992.25;5081559;28;20051;-86
2022/07/30 04:56:21;;;;;;;14.23;5.95;;;;;;;24.32;46.74;95189.25;5082143;28;20032;-86
2022/07/30 04:58:49;;;;;;;10.32;6.18;;;;;;;24.44;46.91;95221.59;5063352;28;20040;-86
2022/07/30 05:01:22;;;;;;;14.15;6.20;;;;;;;24.71;46.64;95241.44;5081661;28;20054;-86
2022/07/30 05:03:51;;;;;;;8.88;5.80;;;;;;;24.57;46.79;95233.84;5062930;28;20036;-86
2022/07/30 05:06:17;;;;;;;10.48;6.35;;;;;;;24.23;46.87;95167.81;5062935;28;20299;-86
2022/07/30 05:08:43;;;;;;;15.18;5.50;;;;;;;24.12;47.02;95141.63;5043034;28;20041;-86
2022/07/30 05:11:12;;;;;;;12.30;5.57;;;;;;;24.25;46.85;95166.69;5079813;28;20098;-86
2022/07/30 05:13:47;;;;;;;15.70;6.25;;;;;;;24.49;46.76;95185.28;5062439;28;20047;-86
2022/07/30 05:16:12;;;;;;;12.38;6.53;;;;;;;22.23;46.95;94836.94;5063297;28;20123;-86
2022/07/30 05:18:38;;;;;;;9.65;5.95;;;;;;;24.64;46.83;95202.59;5062643;28;20140;-86
2022/07/30 05:21:04;;;;;;;18.88;5.30;;;;;;;24.68;46.99;95217.75;5062326;28;20411;-86
2022/07/30 05:23:30;;;;;;;12.02;5.78;;;;;;;24.70;46.76;95196.50;5063135;28;20044;-87
2022/07/30 05:25:56;;;;;;;10.43;5.53;;;;;;;24.59;46.75;95171.91;5062995;28;20489;-86
2022/07/30 05:28:21;;;;;;;12.30;5.78;;;;;;;24.46;47.11;95162.41;5062823;28;20040;-87
2022/07/30 05:30:47;;;;;;;7.78;5.43;;;;;;;24.33;46.85;95131.22;5062932;28;20453;-86
2022/07/30 05:33:13;;;;;;;17.23;5.40;;;;;;;24.85;47.04;95205.63;5081351;28;20044;-87
2022/07/30 05:35:38;;;;;;;10.10;5.18;;;;;;;24.00;46.83;95060.53;5062473;28;20117;-86
2022/07/30 05:38:03;;;;;;;9.15;5.63;;;;;;;23.17;46.83;94951.94;5062664;28;20139;-86
2022/07/30 05:40:29;;;;;;;14.20;6.60;;;;;;;23.72;46.90;95036.47;5062921;28;20050;-86
2022/07/30 05:42:54;;;;;;;15.95;6.57;;;;;;;23.37;46.60;94977.81;5062542;28;20048;-87
2022/07/30 05:45:20;;;;;;;17.48;6.00;;;;;;;25.19;46.72;95242.63;5062289;28;20044;-86
2022/07/30 05:47:45;;;;;;;12.85;6.00;;;;;;;24.49;46.65;95131.84;5062369;28;20066;-86
2022/07/30 05:50:11;;;;;;;10.27;6.70;;;;;;;24.87;46.42;95173.50;5062287;28;20354;-86
2022/07/30 05:52:37;;;;;;;17.92;7.18;;;;;;;24.86;46.87;95194.44;5061970;28;20225;-86
2022/07/30 05:55:03;;;;;;;16.23;6.60;;;;;;;24.59;46.73;95149.44;5062830;28;20611;-86
2022/07/30 05:57:28;;;;;;;20.27;6.50;;;;;;;25.06;46.55;95189.72;5062714;28;20051;-87
2022/07/30 05:59:54;;;;;;;12.55;6.90;;;;;;;25.16;46.55;95197.22;5081345;28;20055;-86
2022/07/30 06:02:19;;;;;;;16.88;6.88;;;;;;;25.30;46.28;95205.56;5063258;28;20496;-87
2022/07/30 06:04:45;;;;;;;11.35;7.35;;;;;;;25.25;46.03;95186.88;5081491;28;20051;-87
2022/07/30 06:07:10;;;;;;;14.93;6.47;;;;;;;25.36;46.04;95201.38;5063291;28;20040;-85
2022/07/30 06:09:36;;;;;;;11.43;5.53;;;;;;;25.08;45.58;95176.56;5064079;28;20213;-86
2022/07/30 06:12:01;;;;;;;9.45;6.47;;;;;;;25.63;44.94;95253.75;5064796;28;20040;-85
2022/07/30 06:14:27;;;;;;;14.00;5.82;;;;;;;25.29;44.71;95195.09;5064986;28;20463;-85
2022/07/30 06:16:52;;;;;;;16.60;5.85;;;;;;;25.51;45.20;95218.66;5062960;28;20123;-85
2022/07/30 06:19:18;;;;;;;11.00;6.18;;;;;;;25.06;45.17;95165.28;5063376;28;20071;-86
2022/07/30 06:21:43;;;;;;;10.13;6.35;;;;;;;25.42;45.01;95203.78;5081713;28;20032;-86
2022/07/30 06:24:08;;;;;;;19.88;6.07;;;;;;;23.90;44.02;94998.84;5062600;28;20048;-85
2022/07/30 06:26:34;;;;;;;13.68;6.10;;;;;;;24.29;43.55;95011.13;5080871;28;20514;-85
2022/07/30 06:28:59;;;;;;;12.82;5.68;;;;;;;25.86;43.52;95234.66;5062404;28;20028;-86
2022/07/30 06:31:25;;;;;;;8.38;5.30;;;;;;;25.97;43.74;95246.44;5063210;28;20036;-86
2022/07/30 06:33:50;;;;;;;11.27;5.35;;;;;;;25.34;43.68;95137.75;5080620;28;20173;-85
2022/07/30 06:36:16;;;;;;;13.68;5.53;;;;;;;25.90;43.32;95205.59;5081393;28;20040;-85
2022/07/30 06:38:41;;;;;;;14.38;5.85;;;;;;;25.91;43.44;95214.53;5062561;28;20056;-85
2022/07/30 06:41:07;;;;;;;8.43;4.82;;;;;;;25.87;43.51;95200.91;5062852;28;20147;-85
2022/07/30 06:43:32;;;;;;;11.73;4.82;;;;;;;25.53;43.75;95145.75;5054047;28;20529;-86
2022/07/30 06:45:58;;;;;;;9.27;4.70;;;;;;;26.08;43.85;95213.97;5059428;28;20052;-85
2022/07/30 06:48:23;;;;;;;7.47;5.13;;;;;;;25.98;44.29;95177.38;5062853;28;20502;-85
2022/07/30 06:50:49;;;;;;;13.45;5.07;;;;;;;25.90;43.95;95151.25;5062529;28;20044;-85
2022/07/30 06:53:14;;;;;;;7.65;4.93;;;;;;;25.87;44.05;95152.00;5061703;28;20515;-86
2022/07/30 06:55:40;;;;;;;8.55;5.05;;;;;;;26.26;43.49;95197.84;5079615;28;20058;-86
2022/07/30 06:58:05;;;;;;;9.23;4.45;;;;;;;25.67;43.64;95093.56;5079110;28;20456;-85
2022/07/30 07:00:31;;;;;;;9.18;4.53;;;;;;;26.20;44.22;95166.72;5073423;28;20071;-85
2022/07/30 07:02:56;;;;;;;11.25;4.78;;;;;;;26.53;44.15;95221.06;5062354;28;20608;-85
2022/07/30 07:05:22;;;;;;;10.45;5.50;;;;;;;26.40;43.71;95182.47;5061281;28;20043;-86
2022/07/30 07:07:48;;;;;;;11.23;4.90;;;;;;;26.27;44.12;95164.88;5079736;28;20069;-86
2022/07/30 07:10:13;;;;;;;8.35;5.20;;;;;;;26.37;43.27;95179.72;5061588;28;20064;-86
2022/07/30 07:12:39;;;;;;;9.82;5.03;;;;;;;26.23;43.82;95152.38;5061339;28;20118;-86
2022/07/30 07:15:05;;;;;;;8.65;4.70;;;;;;;26.63;43.44;95205.97;5061372;28;20044;-86
2022/07/30 07:17:31;;;;;;;11.15;5.43;;;;;;;25.38;43.34;94998.22;5062928;28;20521;-86
2022/07/30 07:19:56;;;;;;;9.90;4.97;;;;;;;26.36;43.06;95131.94;5061360;28;20128;-86
2022/07/30 07:22:22;;;;;;;7.72;4.90;;;;;;;26.33;43.61;95116.38;5053629;28;20099;-86
2022/07/30 07:24:47;;;;;;;10.77;5.40;;;;;;;26.88;43.30;95193.38;5061716;28;20489;-86
2022/07/30 07:27:14;;;;;;;11.95;5.38;;;;;;;26.73;43.57;95159.84;5079156;28;20052;-86
2022/07/30 07:29:40;;;;;;;7.90;4.90;;;;;;;26.81;43.24;95168.84;5062337;28;20608;-86
2022/07/30 07:32:05;;;;;;;10.52;5.65;;;;;;;26.61;43.23;95119.34;5060091;28;20134;-86
2022/07/30 07:34:31;;;;;;;6.38;5.25;;;;;;;26.73;43.16;95134.56;5072411;28;20075;-86
2022/07/30 07:36:56;;;;;;;10.68;5.25;;;;;;;26.65;43.58;95128.28;5060960;28;20410;-86
2022/07/30 07:39:22;;;;;;;6.90;4.68;;;;;;;26.33;43.47;95060.06;5097098;28;20059;-86
2022/07/30 07:41:47;;;;;;;12.15;4.78;;;;;;;26.97;43.06;95160.44;5081559;28;20039;-86
2022/07/30 07:44:13;;;;;;;6.90;4.88;;;;;;;26.87;42.27;95142.84;5083223;28;20134;-86
2022/07/30 07:46:38;;;;;;;7.28;4.47;;;;;;;27.01;41.85;95169.38;5104313;28;20147;-87
2022/07/30 07:49:03;;;;;;;7.07;4.75;;;;;;;26.93;42.35;95130.47;5085535;28;20031;-85
2022/07/30 07:51:29;;;;;;;13.55;5.78;;;;;;;26.83;42.49;95126.50;5084954;28;20047;-85
2022/07/30 07:53:54;;;;;;;11.65;5.40;;;;;;;26.46;41.86;95058.63;5086443;28;20026;-86
2022/07/30 07:56:20;;;;;;;11.63;4.93;;;;;;;26.31;41.64;95016.19;5085541;28;20120;-85
2022/07/30 07:58:46;;;;;;;15.98;5.03;;;;;;;27.18;40.58;95145.00;5085629;28;20403;-85
2022/07/30 08:01:12;;;;;;;8.10;5.25;;;;;;;27.20;40.53;95144.63;5104501;28;20482;-85
2022/07/30 08:03:37;;;;;;;7.82;5.30;;;;;;;27.17;40.99;95123.59;5085097;28;20752;-85
2022/07/30 08:06:03;;;;;;;7.53;5.00;;;;;;;27.13;40.23;95120.88;5085295;28;20043;-85
2022/07/30 08:08:29;;;;;;;13.18;4.95;;;;;;;27.30;40.95;95140.41;5084817;28;20043;-85
2022/07/30 08:10:55;;;;;;;11.05;4.82;;;;;;;26.43;41.57;95004.22;5084914;28;20829;-86
2022/07/30 08:13:21;;;;;;;9.50;4.18;;;;;;;27.54;41.93;95140.56;5084251;28;20493;-85
2022/07/30 08:15:46;;;;;;;14.00;5.35;;;;;;;27.39;40.45;95116.34;5102940;28;20035;-86
2022/07/30 08:18:12;;;;;;;10.27;4.85;;;;;;;27.35;40.04;95094.53;5085034;28;20258;-86
2022/07/30 08:20:38;;;;;;;9.60;4.80;;;;;;;27.88;40.07;95173.00;5085326;28;20717;-86
2022/07/30 08:23:04;;;;;;;11.07;4.60;;;;;;;27.66;40.66;95153.06;5084816;28;20133;-86
2022/07/30 08:25:29;;;;;;;6.90;4.50;;;;;;;27.78;40.50;95160.88;5103203;28;20126;-86
2022/07/30 08:27:55;;;;;;;9.10;4.63;;;;;;;26.53;40.47;94946.41;5084342;28;20028;-86
2022/07/30 08:30:21;;;;;;;7.55;4.68;;;;;;;27.90;41.14;95143.44;5084989;28;20035;-86
2022/07/30 08:32:46;;;;;;;5.55;4.93;;;;;;;27.99;39.84;95155.53;5083182;28;20046;-87
2022/07/30 08:35:12;;;;;;;9.13;4.35;;;;;;;27.97;39.92;95138.78;5084420;28;20032;-86
2022/07/30 08:37:39;;;;;;;8.48;4.97;;;;;;;27.73;40.45;95106.78;5084222;28;20120;-86
2022/07/30 08:40:06;;;;;;;8.52;5.32;;;;;;;28.28;39.63;95171.97;5084106;28;20479;-86
2022/07/30 08:42:34;;;;;;;7.70;5.30;;;;;;;28.32;40.09;95159.13;5083337;28;20031;-86
2022/07/30 08:45:00;;;;;;;6.07;5.10;;;;;;;28.10;40.02;95133.72;5084068;28;20043;-86
2022/07/30 08:47:36;;;;;;;8.02;5.07;;;;;;;28.28;38.88;95158.34;5084800;28;20051;-86
2022/07/30 08:50:04;;;;;;;10.77;5.53;;;;;;;28.03;38.44;95118.13;5103367;28;20036;-86
2022/07/30 08:52:35;;;;;;;10.32;4.85;;;;;;;28.35;39.18;95161.06;5084086;28;20161;-86
2022/07/30 08:55:03;;;;;;;;;;;;;;;28.51;39.66;95158.75;5084376;28;20045;-86
2022/07/30 08:57:29;;;;;;;7.45;4.53;;;;;;;28.54;39.98;95155.25;5101619;28;19960;-86
2022/07/30 08:59:57;;;;;;;7.90;4.70;;;;;;;28.09;39.32;95080.38;5083837;28;20035;-86
2022/07/30 09:02:22;;;;;;;8.90;5.57;;;;;;;28.42;38.71;95123.69;5083971;28;20060;-86
2022/07/30 09:04:48;;;;;;;8.23;5.82;;;;;;;28.42;38.90;95090.94;5102777;28;20111;-86
2022/07/30 09:07:14;;;;;;;8.13;4.95;;;;;;;28.60;38.58;95115.50;5102862;28;20061;-86
2022/07/30 09:09:39;;;;;;;5.57;4.60;;;;;;;28.82;37.61;95132.69;5087855;28;20047;-86
2022/07/30 09:12:30;;;;;;;8.23;5.18;;;;;;;28.84;37.56;95133.03;5090113;28;20040;-86
2022/07/30 09:15:19;;;;;;;5.30;4.80;;;;;;;28.95;37.21;95119.41;5082666;28;20146;-86
2022/07/30 09:17:51;;;;;;;9.27;6.18;;;;;;;29.07;37.94;95122.47;5083840;28;20096;-86
2022/07/30 09:20:18;;;;;;;9.82;4.72;;;;;;;28.85;37.07;95073.78;5111073;28;20035;-86
2022/07/30 09:23:01;;;;;;;8.13;5.53;;;;;;;28.42;37.52;95000.16;5090332;28;20077;-87
2022/07/30 09:25:41;;;;;;;13.80;5.10;;;;;;;28.92;37.71;95063.63;5095798;28;20043;-85
2022/07/30 09:28:08;;;;;;;10.30;5.10;;;;;;;28.86;37.13;95048.81;5084655;28;20092;-85
2022/07/30 09:30:46;;;;;;;6.65;5.95;;;;;;;29.32;37.45;95110.72;5086840;28;20046;-85
2022/07/30 09:33:12;;;;;;;9.45;5.05;;;;;;;29.04;37.51;95070.63;5085870;28;20057;-85
2022/07/30 09:35:38;;;;;;;10.18;5.82;;;;;;;27.75;35.74;94859.25;5086627;28;20032;-85
2022/07/30 09:38:05;;;;;;;14.73;7.00;;;;;;;29.10;35.47;95050.72;5085722;28;20059;-86
2022/07/30 09:40:30;;;;;;;9.55;5.05;;;;;;;28.70;36.63;94983.72;5102479;28;20533;-86
2022/07/30 09:43:09;;;;;;;12.70;4.75;;;;;;;29.62;36.21;95097.38;5084719;28;20045;-85
2022/07/30 09:45:35;;;;;;;10.45;4.20;;;;;;;29.63;36.57;95100.88;5083733;28;20514;-86
2022/07/30 09:48:01;;;;;;;12.30;4.70;;;;;;;29.71;36.48;95103.19;5083849;28;20091;-86
2022/07/30 09:50:28;;;;;;;7.65;4.38;;;;;;;29.42;36.25;95036.97;5102452;28;20063;-86
2022/07/30 09:53:04;;;;;;;12.35;4.10;;;;;;;29.23;35.29;94965.63;5083161;28;20046;-86
2022/07/30 09:55:32;;;;;;;6.72;3.97;;;;;;;30.55;35.58;95092.94;5091590;28;20044;-86
2022/07/30 09:58:03;;;;;;;6.82;3.83;;;;;;;31.50;33.27;95084.19;5082397;28;20470;-86
2022/07/30 10:00:30;;;;;;;6.97;3.67;;;;;;;31.53;30.99;94985.47;5082347;28;20607;-86
2022/07/30 10:02:56;;;;;;;9.10;4.22;;;;;;;33.03;30.21;95064.28;5081971;28;20043;-86
2022/07/30 10:05:23;;;;;;;4.68;3.60;;;;;;;34.07;28.01;95066.50;5085037;28;20081;-86
2022/07/30 10:07:51;;;;;;;8.40;4.28;;;;;;;34.78;27.19;95073.13;5099273;28;20114;-86
2022/07/30 10:10:19;;;;;;;4.72;4.00;;;;;;;35.24;26.44;95049.91;5081856;28;20108;-86
2022/07/30 10:12:45;;;;;;;7.25;4.25;;;;;;;36.25;25.14;95058.34;5103143;28;20048;-86
2022/07/30 10:15:14;;;;;;;4.32;3.15;;;;;;;36.33;24.94;94984.34;5081911;28;20542;-86
2022/07/30 10:17:40;;;;;;;6.32;3.38;;;;;;;36.70;24.53;94964.16;5100759;28;20047;-86
2022/07/30 10:20:10;;;;;;;6.82;3.83;;;;;;;37.61;23.94;95013.88;5081159;28;20550;-85
2022/07/30 10:22:37;;;;;;;4.18;3.78;;;;;;;38.21;22.57;95058.63;5081939;28;20031;-86
2022/07/30 10:25:03;;;;;;;7.15;3.95;;;;;;;38.40;22.52;95042.84;5100123;28;20863;-86
2022/07/30 10:27:29;;;;;;;7.28;4.10;;;;;;;38.93;22.49;95048.19;5081736;28;20032;-85
2022/07/30 10:29:57;;;;;;;8.60;3.80;;;;;;;39.03;21.77;95019.28;5100208;28;20035;-85
2022/07/30 10:32:25;;;;;;;9.00;4.15;;;;;;;39.11;20.93;95028.06;5101192;28;20046;-85
2022/07/30 10:34:51;;;;;;;7.32;4.13;;;;;;;39.27;21.38;95014.66;5081552;28;20039;-85
2022/07/30 10:37:19;;;;;;;6.10;4.03;;;;;;;39.28;21.14;94996.78;5081901;28;20335;-86
2022/07/30 10:40:04;;;;;;;8.40;3.90;;;;;;;39.36;20.55;94973.03;5061666;28;20052;-85
2022/07/30 10:43:00;;;;;;;5.85;3.85;;;;;;;39.75;20.62;95037.09;5062090;28;20047;-86
2022/07/30 10:45:46;;;;;;;6.60;4.75;;;;;;;39.53;20.49;94994.88;5080022;28;20040;-86
2022/07/30 10:48:11;;;;;;;6.82;4.88;;;;;;;39.72;20.56;95013.81;5079291;28;20131;-85
2022/07/30 10:50:52;;;;;;;9.80;5.28;;;;;;;39.45;20.66;94988.91;5079543;28;20138;-85
2022/07/30 10:53:36;;;;;;;7.85;5.00;;;;;;;39.65;21.52;95025.25;5061605;28;20035;-85
2022/07/30 10:56:22;;;;;;;5.32;4.68;;;;;;;39.93;20.25;95014.84;5062008;28;20139;-86
2022/07/30 10:59:09;;;;;;;7.82;4.85;;;;;;;39.40;20.29;95008.19;5061508;28;20059;-86
2022/07/30 11:01:46;;;;;;;7.88;5.00;;;;;;;39.63;21.10;95016.63;5061086;28;20028;-86
2022/07/30 11:04:23;;;;;;;9.77;4.82;;;;;;;39.30;20.16;94965.78;5080359;28;20039;-85
2022/07/30 11:06:50;;;;;;;6.25;5.15;;;;;;;39.46;21.29;95012.63;5062603;28;20042;-85
2022/07/30 11:09:38;;;;;;;5.88;5.10;;;;;;;39.41;21.51;94981.97;5061961;28;20126;-85
2022/07/30 11:12:05;;;;;;;6.68;5.75;;;;;;;39.77;19.86;94972.78;5079425;28;20028;-86
2022/07/30 11:14:46;;;;;;;9.15;5.45;;;;;;;39.88;20.41;94987.72;5061453;28;20462;-86
2022/07/30 11:17:13;;;;;;;7.88;5.65;;;;;;;39.67;20.23;94931.16;5061501;28;20066;-85
2022/07/30 11:20:05;;;;;;;8.90;5.82;;;;;;;40.13;20.31;94989.31;5062665;28;20040;-85
2022/07/30 11:22:39;;;;;;;11.40;7.00;;;;;;;40.25;19.87;94948.69;5065291;28;20055;-85
2022/07/30 11:25:06;;;;;;;10.98;5.93;;;;;;;40.47;20.24;94994.41;5063815;28;20481;-86
2022/07/30 11:27:35;;;;;;;8.13;5.22;;;;;;;40.15;18.83;94991.63;5055282;28;20033;-86
2022/07/30 11:30:01;;;;;;;10.55;5.13;;;;;;;39.73;20.19;94972.97;5062896;28;20040;-86
2022/07/30 11:32:33;;;;;;;8.27;5.50;;;;;;;40.11;19.87;94942.59;5064675;28;20131;-86
2022/07/30 11:35:22;;;;;;;10.18;5.65;;;;;;;40.40;20.09;94964.19;5064743;28;20145;-86
2022/07/30 11:38:06;;;;;;;7.18;5.35;;;;;;;40.45;20.09;94971.09;5064179;28;20449;-86